sensor_id;sensor_type;location;lat;lon;timestamp;P1;durP1;ratioP1;P2;durP2;ratioP2
62584;SDS011;48643;51.670;5.808;2023-01-28T00:01:28;1.45;;;1.17;;
62584;SDS011;48643;51.670;5.808;2023-01-28T00:03:55;1.17;;;0.98;;
62584;SDS011;48643;51.670;5.808;2023-01-28T00:06:22;1.20;;;1.10;;
62584;SDS011;48643;51.670;5.808;2023-01-28T00:08:49;1.52;;;1.23;;
62584;SDS011;48643;51.670;5.808;2023-01-28T00:11:15;1.95;;;1.20;;
62584;SDS011;48643;51.670;5.808;2023-01-28T00:13:42;1.60;;;1.20;;
62584;SDS011;48643;51.670;5.808;2023-01-28T00:16:09;1.52;;;1.27;;
62584;SDS011;48643;51.670;5.808;2023-01-28T00:18:37;1.40;;;1.30;;
62584;SDS011;48643;51.670;5.808;2023-01-28T00:21:09;1.75;;;1.33;;
62584;SDS011;48643;51.670;5.808;2023-01-28T00:23:39;1.60;;;1.33;;
62584;SDS011;48643;51.670;5.808;2023-01-28T00:26:12;1.33;;;1.02;;
62584;SDS011;48643;51.670;5.808;2023-01-28T00:28:42;1.23;;;1.13;;
62584;SDS011;48643;51.670;5.808;2023-01-28T00:31:11;1.70;;;1.33;;
62584;SDS011;48643;51.670;5.808;2023-01-28T00:33:42;2.15;;;1.60;;
62584;SDS011;48643;51.670;5.808;2023-01-28T00:36:09;1.60;;;1.35;;
62584;SDS011;48643;51.670;5.808;2023-01-28T00:38:37;2.05;;;1.50;;
62584;SDS011;48643;51.670;5.808;2023-01-28T00:41:14;1.80;;;1.50;;
62584;SDS011;48643;51.670;5.808;2023-01-28T00:43:42;1.55;;;1.25;;
62584;SDS011;48643;51.670;5.808;2023-01-28T00:46:10;1.25;;;1.05;;
62584;SDS011;48643;51.670;5.808;2023-01-28T00:48:39;1.67;;;1.23;;
62584;SDS011;48643;51.670;5.808;2023-01-28T00:51:07;1.67;;;1.23;;
62584;SDS011;48643;51.670;5.808;2023-01-28T00:53:36;1.55;;;1.30;;
62584;SDS011;48643;51.670;5.808;2023-01-28T00:56:04;1.60;;;1.20;;
62584;SDS011;48643;51.670;5.808;2023-01-28T00:58:32;1.90;;;1.50;;
62584;SDS011;48643;51.670;5.808;2023-01-28T01:01:06;1.38;;;1.23;;
62584;SDS011;48643;51.670;5.808;2023-01-28T01:03:34;1.65;;;1.30;;
62584;SDS011;48643;51.670;5.808;2023-01-28T01:06:01;1.33;;;1.20;;
62584;SDS011;48643;51.670;5.808;2023-01-28T01:08:28;1.45;;;1.30;;
62584;SDS011;48643;51.670;5.808;2023-01-28T01:11:00;1.80;;;1.52;;
62584;SDS011;48643;51.670;5.808;2023-01-28T01:13:29;2.50;;;1.50;;
62584;SDS011;48643;51.670;5.808;2023-01-28T01:16:04;1.60;;;1.30;;
62584;SDS011;48643;51.670;5.808;2023-01-28T01:18:32;1.52;;;1.33;;
62584;SDS011;48643;51.670;5.808;2023-01-28T01:20:59;1.20;;;1.10;;
62584;SDS011;48643;51.670;5.808;2023-01-28T01:23:27;3.38;;;1.50;;
62584;SDS011;48643;51.670;5.808;2023-01-28T01:25:55;1.73;;;1.35;;
62584;SDS011;48643;51.670;5.808;2023-01-28T01:28:22;1.25;;;1.05;;
62584;SDS011;48643;51.670;5.808;2023-01-28T01:30:57;1.88;;;1.40;;
62584;SDS011;48643;51.670;5.808;2023-01-28T01:33:26;1.63;;;1.38;;
62584;SDS011;48643;51.670;5.808;2023-01-28T01:35:54;2.90;;;1.50;;
62584;SDS011;48643;51.670;5.808;2023-01-28T01:38:21;1.40;;;1.30;;
62584;SDS011;48643;51.670;5.808;2023-01-28T01:40:48;2.20;;;1.60;;
62584;SDS011;48643;51.670;5.808;2023-01-28T01:43:16;2.70;;;1.58;;
62584;SDS011;48643;51.670;5.808;2023-01-28T01:45:45;1.90;;;1.50;;
62584;SDS011;48643;51.670;5.808;2023-01-28T01:48:15;1.63;;;1.30;;
62584;SDS011;48643;51.670;5.808;2023-01-28T01:50:51;1.98;;;1.52;;
62584;SDS011;48643;51.670;5.808;2023-01-28T01:53:20;1.50;;;1.40;;
62584;SDS011;48643;51.670;5.808;2023-01-28T01:55:49;1.98;;;1.70;;
62584;SDS011;48643;51.670;5.808;2023-01-28T01:58:17;2.40;;;1.48;;
62584;SDS011;48643;51.670;5.808;2023-01-28T02:00:45;2.17;;;1.40;;
62584;SDS011;48643;51.670;5.808;2023-01-28T02:03:12;1.75;;;1.40;;
62584;SDS011;48643;51.670;5.808;2023-01-28T02:05:41;1.52;;;1.20;;
62584;SDS011;48643;51.670;5.808;2023-01-28T02:08:08;2.47;;;1.58;;
62584;SDS011;48643;51.670;5.808;2023-01-28T02:10:47;1.88;;;1.50;;
62584;SDS011;48643;51.670;5.808;2023-01-28T02:13:24;1.90;;;1.48;;
62584;SDS011;48643;51.670;5.808;2023-01-28T02:15:54;3.05;;;1.80;;
62584;SDS011;48643;51.670;5.808;2023-01-28T02:18:21;1.60;;;1.50;;
62584;SDS011;48643;51.670;5.808;2023-01-28T02:24:09;1.92;;;1.50;;
62584;SDS011;48643;51.670;5.808;2023-01-28T02:26:39;2.60;;;1.80;;
62584;SDS011;48643;51.670;5.808;2023-01-28T02:29:55;1.35;;;1.25;;
62584;SDS011;48643;51.670;5.808;2023-01-28T02:32:47;1.70;;;1.42;;
62584;SDS011;48643;51.670;5.808;2023-01-28T02:35:41;2.38;;;1.70;;
62584;SDS011;48643;51.670;5.808;2023-01-28T02:38:23;2.60;;;1.73;;
62584;SDS011;48643;51.670;5.808;2023-01-28T02:40:55;1.73;;;1.50;;
62584;SDS011;48643;51.670;5.808;2023-01-28T02:43:36;1.88;;;1.60;;
62584;SDS011;48643;51.670;5.808;2023-01-28T02:46:13;2.00;;;1.50;;
62584;SDS011;48643;51.670;5.808;2023-01-28T02:49:03;1.65;;;1.50;;
62584;SDS011;48643;51.670;5.808;2023-01-28T02:51:51;1.38;;;1.27;;
62584;SDS011;48643;51.670;5.808;2023-01-28T02:54:52;2.00;;;1.50;;
62584;SDS011;48643;51.670;5.808;2023-01-28T02:57:36;1.75;;;1.50;;
62584;SDS011;48643;51.670;5.808;2023-01-28T03:02:52;1.80;;;1.50;;
62584;SDS011;48643;51.670;5.808;2023-01-28T03:05:40;2.28;;;1.70;;
62584;SDS011;48643;51.670;5.808;2023-01-28T03:08:33;1.92;;;1.58;;
62584;SDS011;48643;51.670;5.808;2023-01-28T03:14:15;1.75;;;1.40;;
62584;SDS011;48643;51.670;5.808;2023-01-28T03:17:01;1.70;;;1.52;;
62584;SDS011;48643;51.670;5.808;2023-01-28T03:19:51;1.45;;;1.35;;
62584;SDS011;48643;51.670;5.808;2023-01-28T03:22:37;1.75;;;1.40;;
62584;SDS011;48643;51.670;5.808;2023-01-28T03:25:25;2.22;;;1.65;;
62584;SDS011;48643;51.670;5.808;2023-01-28T03:28:13;1.80;;;1.50;;
62584;SDS011;48643;51.670;5.808;2023-01-28T03:31:03;1.83;;;1.58;;
62584;SDS011;48643;51.670;5.808;2023-01-28T03:33:54;1.60;;;1.40;;
62584;SDS011;48643;51.670;5.808;2023-01-28T03:36:41;1.60;;;1.40;;
62584;SDS011;48643;51.670;5.808;2023-01-28T03:39:33;2.28;;;1.70;;
62584;SDS011;48643;51.670;5.808;2023-01-28T03:42:08;2.03;;;1.50;;
62584;SDS011;48643;51.670;5.808;2023-01-28T03:45:10;2.27;;;1.70;;
62584;SDS011;48643;51.670;5.808;2023-01-28T03:47:37;1.58;;;1.40;;
62584;SDS011;48643;51.670;5.808;2023-01-28T03:50:09;2.40;;;1.60;;
62584;SDS011;48643;51.670;5.808;2023-01-28T03:52:46;1.38;;;1.27;;
62584;SDS011;48643;51.670;5.808;2023-01-28T03:55:23;1.90;;;1.42;;
62584;SDS011;48643;51.670;5.808;2023-01-28T03:57:51;1.85;;;1.50;;
62584;SDS011;48643;51.670;5.808;2023-01-28T04:00:18;1.80;;;1.52;;
62584;SDS011;48643;51.670;5.808;2023-01-28T04:02:45;1.50;;;1.30;;
62584;SDS011;48643;51.670;5.808;2023-01-28T04:05:15;2.50;;;1.80;;
62584;SDS011;48643;51.670;5.808;2023-01-28T04:07:47;2.20;;;1.70;;
62584;SDS011;48643;51.670;5.808;2023-01-28T04:10:33;2.42;;;1.50;;
62584;SDS011;48643;51.670;5.808;2023-01-28T04:13:08;1.73;;;1.45;;
62584;SDS011;48643;51.670;5.808;2023-01-28T04:15:38;1.85;;;1.50;;
62584;SDS011;48643;51.670;5.808;2023-01-28T04:18:07;1.92;;;1.63;;
62584;SDS011;48643;51.670;5.808;2023-01-28T04:20:36;1.45;;;1.33;;
62584;SDS011;48643;51.670;5.808;2023-01-28T04:23:03;2.08;;;1.52;;
62584;SDS011;48643;51.670;5.808;2023-01-28T04:25:30;1.77;;;1.50;;
62584;SDS011;48643;51.670;5.808;2023-01-28T04:27:59;1.88;;;1.60;;
62584;SDS011;48643;51.670;5.808;2023-01-28T04:30:28;1.75;;;1.30;;
62584;SDS011;48643;51.670;5.808;2023-01-28T04:33:14;1.52;;;1.33;;
62584;SDS011;48643;51.670;5.808;2023-01-28T04:35:58;1.80;;;1.45;;
62584;SDS011;48643;51.670;5.808;2023-01-28T04:39:03;1.60;;;1.50;;
62584;SDS011;48643;51.670;5.808;2023-01-28T04:41:35;1.88;;;1.52;;
62584;SDS011;48643;51.670;5.808;2023-01-28T04:44:09;1.85;;;1.42;;
62584;SDS011;48643;51.670;5.808;2023-01-28T04:46:58;1.90;;;1.35;;
62584;SDS011;48643;51.670;5.808;2023-01-28T04:49:54;1.75;;;1.50;;
62584;SDS011;48643;51.670;5.808;2023-01-28T04:52:42;1.92;;;1.52;;
62584;SDS011;48643;51.670;5.808;2023-01-28T04:55:22;1.63;;;1.35;;
62584;SDS011;48643;51.670;5.808;2023-01-28T04:57:49;1.70;;;1.40;;
62584;SDS011;48643;51.670;5.808;2023-01-28T05:00:16;2.15;;;1.60;;
62584;SDS011;48643;51.670;5.808;2023-01-28T05:02:43;1.77;;;1.40;;
62584;SDS011;48643;51.670;5.808;2023-01-28T05:05:10;2.42;;;1.70;;
62584;SDS011;48643;51.670;5.808;2023-01-28T05:07:53;1.58;;;1.30;;
62584;SDS011;48643;51.670;5.808;2023-01-28T05:10:23;1.40;;;1.27;;
62584;SDS011;48643;51.670;5.808;2023-01-28T05:15:19;1.58;;;1.20;;
62584;SDS011;48643;51.670;5.808;2023-01-28T05:17:46;1.23;;;1.13;;
62584;SDS011;48643;51.670;5.808;2023-01-28T05:20:15;1.70;;;1.38;;
62584;SDS011;48643;51.670;5.808;2023-01-28T05:22:45;1.60;;;1.30;;
62584;SDS011;48643;51.670;5.808;2023-01-28T05:25:17;1.33;;;1.20;;
62584;SDS011;48643;51.670;5.808;2023-01-28T05:27:48;1.40;;;1.25;;
62584;SDS011;48643;51.670;5.808;2023-01-28T05:30:19;1.40;;;1.30;;
62584;SDS011;48643;51.670;5.808;2023-01-28T05:32:46;1.60;;;1.33;;
62584;SDS011;48643;51.670;5.808;2023-01-28T05:35:16;1.88;;;1.45;;
62584;SDS011;48643;51.670;5.808;2023-01-28T05:37:44;1.35;;;1.25;;
62584;SDS011;48643;51.670;5.808;2023-01-28T05:40:11;1.52;;;1.30;;
62584;SDS011;48643;51.670;5.808;2023-01-28T05:42:39;1.50;;;1.33;;
62584;SDS011;48643;51.670;5.808;2023-01-28T05:45:22;1.88;;;1.50;;
62584;SDS011;48643;51.670;5.808;2023-01-28T05:47:59;4.55;;;1.30;;
62584;SDS011;48643;51.670;5.808;2023-01-28T05:50:47;1.20;;;1.10;;
62584;SDS011;48643;51.670;5.808;2023-01-28T05:53:34;1.63;;;1.20;;
62584;SDS011;48643;51.670;5.808;2023-01-28T05:56:01;1.60;;;1.20;;
62584;SDS011;48643;51.670;5.808;2023-01-28T05:58:30;1.30;;;1.20;;
62584;SDS011;48643;51.670;5.808;2023-01-28T06:01:00;1.98;;;1.10;;
62584;SDS011;48643;51.670;5.808;2023-01-28T06:03:35;1.13;;;1.02;;
62584;SDS011;48643;51.670;5.808;2023-01-28T06:06:02;1.38;;;1.23;;
62584;SDS011;48643;51.670;5.808;2023-01-28T06:08:30;1.10;;;1.00;;
62584;SDS011;48643;51.670;5.808;2023-01-28T06:10:58;1.55;;;1.40;;
62584;SDS011;48643;51.670;5.808;2023-01-28T06:13:25;0.88;;;0.88;;
62584;SDS011;48643;51.670;5.808;2023-01-28T06:16:11;2.33;;;1.30;;
62584;SDS011;48643;51.670;5.808;2023-01-28T06:18:47;1.27;;;1.17;;
62584;SDS011;48643;51.670;5.808;2023-01-28T06:21:14;1.63;;;1.40;;
62584;SDS011;48643;51.670;5.808;2023-01-28T06:23:41;1.50;;;1.20;;
62584;SDS011;48643;51.670;5.808;2023-01-28T06:26:08;1.00;;;1.00;;
62584;SDS011;48643;51.670;5.808;2023-01-28T06:28:38;1.90;;;1.25;;
62584;SDS011;48643;51.670;5.808;2023-01-28T06:31:05;1.20;;;1.10;;
62584;SDS011;48643;51.670;5.808;2023-01-28T06:33:32;1.23;;;1.10;;
62584;SDS011;48643;51.670;5.808;2023-01-28T06:36:01;1.27;;;1.10;;
62584;SDS011;48643;51.670;5.808;2023-01-28T06:38:31;1.40;;;1.30;;
62584;SDS011;48643;51.670;5.808;2023-01-28T06:40:58;0.90;;;0.90;;
62584;SDS011;48643;51.670;5.808;2023-01-28T06:43:25;1.92;;;1.27;;
62584;SDS011;48643;51.670;5.808;2023-01-28T06:45:53;1.30;;;1.20;;
62584;SDS011;48643;51.670;5.808;2023-01-28T06:48:20;1.48;;;1.00;;
62584;SDS011;48643;51.670;5.808;2023-01-28T06:50:47;1.15;;;0.90;;
62584;SDS011;48643;51.670;5.808;2023-01-28T06:53:14;1.20;;;1.10;;
62584;SDS011;48643;51.670;5.808;2023-01-28T06:55:41;1.00;;;0.85;;
62584;SDS011;48643;51.670;5.808;2023-01-28T06:58:08;1.45;;;1.10;;
62584;SDS011;48643;51.670;5.808;2023-01-28T07:00:35;0.95;;;0.90;;
62584;SDS011;48643;51.670;5.808;2023-01-28T07:03:03;1.10;;;1.00;;
62584;SDS011;48643;51.670;5.808;2023-01-28T07:05:30;1.40;;;1.10;;
62584;SDS011;48643;51.670;5.808;2023-01-28T07:07:57;1.10;;;1.00;;
62584;SDS011;48643;51.670;5.808;2023-01-28T07:10:24;1.10;;;1.00;;
62584;SDS011;48643;51.670;5.808;2023-01-28T07:12:51;1.13;;;1.00;;
62584;SDS011;48643;51.670;5.808;2023-01-28T07:15:17;1.20;;;1.10;;
62584;SDS011;48643;51.670;5.808;2023-01-28T07:17:44;1.08;;;1.00;;
62584;SDS011;48643;51.670;5.808;2023-01-28T07:20:12;1.60;;;1.30;;
62584;SDS011;48643;51.670;5.808;2023-01-28T07:22:41;1.40;;;1.20;;
62584;SDS011;48643;51.670;5.808;2023-01-28T07:25:09;1.17;;;1.08;;
62584;SDS011;48643;51.670;5.808;2023-01-28T07:27:36;1.48;;;1.23;;
62584;SDS011;48643;51.670;5.808;2023-01-28T07:30:03;1.80;;;1.40;;
62584;SDS011;48643;51.670;5.808;2023-01-28T07:32:30;2.10;;;1.58;;
62584;SDS011;48643;51.670;5.808;2023-01-28T07:34:57;1.85;;;1.50;;
62584;SDS011;48643;51.670;5.808;2023-01-28T07:37:24;1.90;;;1.38;;
62584;SDS011;48643;51.670;5.808;2023-01-28T07:39:51;2.00;;;1.45;;
62584;SDS011;48643;51.670;5.808;2023-01-28T07:42:17;3.20;;;2.03;;
62584;SDS011;48643;51.670;5.808;2023-01-28T07:44:45;4.88;;;1.88;;
62584;SDS011;48643;51.670;5.808;2023-01-28T07:47:12;3.40;;;2.22;;
62584;SDS011;48643;51.670;5.808;2023-01-28T07:49:39;5.50;;;2.25;;
62584;SDS011;48643;51.670;5.808;2023-01-28T07:52:06;3.13;;;1.98;;
62584;SDS011;48643;51.670;5.808;2023-01-28T07:54:33;3.42;;;1.92;;
62584;SDS011;48643;51.670;5.808;2023-01-28T07:57:00;3.28;;;1.90;;
62584;SDS011;48643;51.670;5.808;2023-01-28T07:59:27;2.75;;;1.83;;
62584;SDS011;48643;51.670;5.808;2023-01-28T08:01:54;2.95;;;1.95;;
62584;SDS011;48643;51.670;5.808;2023-01-28T08:04:20;2.72;;;1.67;;
62584;SDS011;48643;51.670;5.808;2023-01-28T08:06:47;2.85;;;1.98;;
62584;SDS011;48643;51.670;5.808;2023-01-28T08:09:14;4.47;;;1.90;;
62584;SDS011;48643;51.670;5.808;2023-01-28T08:11:41;3.15;;;1.67;;
62584;SDS011;48643;51.670;5.808;2023-01-28T08:14:09;5.72;;;1.83;;
62584;SDS011;48643;51.670;5.808;2023-01-28T08:16:36;2.23;;;1.70;;
62584;SDS011;48643;51.670;5.808;2023-01-28T08:19:03;2.45;;;1.63;;
62584;SDS011;48643;51.670;5.808;2023-01-28T08:21:29;2.72;;;1.80;;
62584;SDS011;48643;51.670;5.808;2023-01-28T08:23:56;3.13;;;2.00;;
62584;SDS011;48643;51.670;5.808;2023-01-28T08:26:23;2.83;;;1.90;;
62584;SDS011;48643;51.670;5.808;2023-01-28T08:28:50;2.30;;;1.80;;
62584;SDS011;48643;51.670;5.808;2023-01-28T08:31:17;2.42;;;1.77;;
62584;SDS011;48643;51.670;5.808;2023-01-28T08:33:44;3.70;;;2.13;;
62584;SDS011;48643;51.670;5.808;2023-01-28T08:36:10;3.03;;;1.85;;
62584;SDS011;48643;51.670;5.808;2023-01-28T08:38:37;2.88;;;1.90;;
62584;SDS011;48643;51.670;5.808;2023-01-28T08:41:04;2.92;;;1.88;;
62584;SDS011;48643;51.670;5.808;2023-01-28T08:43:31;4.90;;;2.17;;
62584;SDS011;48643;51.670;5.808;2023-01-28T08:45:57;2.72;;;1.77;;
62584;SDS011;48643;51.670;5.808;2023-01-28T08:48:24;14.35;;;2.22;;
62584;SDS011;48643;51.670;5.808;2023-01-28T08:50:51;4.05;;;1.90;;
62584;SDS011;48643;51.670;5.808;2023-01-28T08:53:18;2.65;;;1.95;;
62584;SDS011;48643;51.670;5.808;2023-01-28T08:55:45;2.88;;;1.85;;
62584;SDS011;48643;51.670;5.808;2023-01-28T08:58:13;4.68;;;2.10;;
62584;SDS011;48643;51.670;5.808;2023-01-28T09:03:09;4.25;;;2.00;;
62584;SDS011;48643;51.670;5.808;2023-01-28T09:05:36;3.40;;;2.13;;
62584;SDS011;48643;51.670;5.808;2023-01-28T09:08:04;4.35;;;2.00;;
62584;SDS011;48643;51.670;5.808;2023-01-28T09:13:03;8.65;;;2.00;;
62584;SDS011;48643;51.670;5.808;2023-01-28T09:15:31;3.28;;;2.00;;
62584;SDS011;48643;51.670;5.808;2023-01-28T09:17:58;4.20;;;2.20;;
62584;SDS011;48643;51.670;5.808;2023-01-28T09:20:25;5.63;;;2.20;;
62584;SDS011;48643;51.670;5.808;2023-01-28T09:22:52;2.55;;;1.70;;
62584;SDS011;48643;51.670;5.808;2023-01-28T09:25:19;7.72;;;1.90;;
62584;SDS011;48643;51.670;5.808;2023-01-28T09:27:46;5.45;;;2.08;;
62584;SDS011;48643;51.670;5.808;2023-01-28T09:30:13;11.57;;;2.22;;
62584;SDS011;48643;51.670;5.808;2023-01-28T09:32:40;10.75;;;2.75;;
62584;SDS011;48643;51.670;5.808;2023-01-28T09:35:07;10.23;;;2.30;;
62584;SDS011;48643;51.670;5.808;2023-01-28T09:37:34;3.80;;;2.20;;
62584;SDS011;48643;51.670;5.808;2023-01-28T09:40:02;6.55;;;2.83;;
62584;SDS011;48643;51.670;5.808;2023-01-28T09:42:41;6.38;;;2.38;;
62584;SDS011;48643;51.670;5.808;2023-01-28T09:45:16;20.00;;;2.83;;
62584;SDS011;48643;51.670;5.808;2023-01-28T09:47:54;4.03;;;2.40;;
62584;SDS011;48643;51.670;5.808;2023-01-28T09:50:27;6.03;;;2.63;;
62584;SDS011;48643;51.670;5.808;2023-01-28T09:53:04;5.82;;;2.28;;
62584;SDS011;48643;51.670;5.808;2023-01-28T09:55:35;5.25;;;2.20;;
62584;SDS011;48643;51.670;5.808;2023-01-28T09:58:11;4.38;;;2.10;;
62584;SDS011;48643;51.670;5.808;2023-01-28T10:11:31;5.38;;;1.85;;
62584;SDS011;48643;51.670;5.808;2023-01-28T10:16:36;4.60;;;1.92;;
62584;SDS011;48643;51.670;5.808;2023-01-28T10:19:14;2.88;;;1.90;;
62584;SDS011;48643;51.670;5.808;2023-01-28T10:21:46;2.90;;;1.90;;
62584;SDS011;48643;51.670;5.808;2023-01-28T10:24:27;3.72;;;1.75;;
62584;SDS011;48643;51.670;5.808;2023-01-28T10:26:57;2.58;;;1.63;;
62584;SDS011;48643;51.670;5.808;2023-01-28T10:29:28;6.05;;;2.00;;
62584;SDS011;48643;51.670;5.808;2023-01-28T10:32:00;3.47;;;1.50;;
62584;SDS011;48643;51.670;5.808;2023-01-28T10:34:38;2.50;;;1.65;;
62584;SDS011;48643;51.670;5.808;2023-01-28T10:37:05;3.97;;;1.80;;
62584;SDS011;48643;51.670;5.808;2023-01-28T10:39:33;3.05;;;1.40;;
62584;SDS011;48643;51.670;5.808;2023-01-28T10:42:00;3.53;;;2.00;;
62584;SDS011;48643;51.670;5.808;2023-01-28T10:44:31;2.13;;;1.63;;
62584;SDS011;48643;51.670;5.808;2023-01-28T10:47:02;2.90;;;1.50;;
62584;SDS011;48643;51.670;5.808;2023-01-28T10:49:40;3.13;;;1.58;;
62584;SDS011;48643;51.670;5.808;2023-01-28T10:52:09;3.15;;;1.52;;
62584;SDS011;48643;51.670;5.808;2023-01-28T10:54:39;2.47;;;1.60;;
62584;SDS011;48643;51.670;5.808;2023-01-28T10:57:09;4.53;;;1.70;;
62584;SDS011;48643;51.670;5.808;2023-01-28T10:59:41;2.55;;;1.60;;
62584;SDS011;48643;51.670;5.808;2023-01-28T11:02:23;1.92;;;1.25;;
62584;SDS011;48643;51.670;5.808;2023-01-28T11:05:01;2.53;;;1.80;;
62584;SDS011;48643;51.670;5.808;2023-01-28T11:07:46;4.35;;;1.70;;
62584;SDS011;48643;51.670;5.808;2023-01-28T11:10:29;3.80;;;1.40;;
62584;SDS011;48643;51.670;5.808;2023-01-28T11:13:00;1.58;;;1.40;;
62584;SDS011;48643;51.670;5.808;2023-01-28T11:15:28;1.67;;;1.40;;
62584;SDS011;48643;51.670;5.808;2023-01-28T11:18:03;7.35;;;1.25;;
62584;SDS011;48643;51.670;5.808;2023-01-28T11:20:39;2.78;;;1.45;;
62584;SDS011;48643;51.670;5.808;2023-01-28T11:23:15;1.55;;;1.30;;
62584;SDS011;48643;51.670;5.808;2023-01-28T11:25:44;1.25;;;1.15;;
62584;SDS011;48643;51.670;5.808;2023-01-28T11:28:16;3.33;;;1.30;;
62584;SDS011;48643;51.670;5.808;2023-01-28T11:30:48;2.47;;;1.45;;
62584;SDS011;48643;51.670;5.808;2023-01-28T11:33:27;1.30;;;1.20;;
62584;SDS011;48643;51.670;5.808;2023-01-28T11:36:04;1.63;;;1.13;;
62584;SDS011;48643;51.670;5.808;2023-01-28T11:41:51;5.55;;;1.33;;
62584;SDS011;48643;51.670;5.808;2023-01-28T11:44:25;1.60;;;1.40;;
62584;SDS011;48643;51.670;5.808;2023-01-28T11:47:15;1.77;;;1.25;;
62584;SDS011;48643;51.670;5.808;2023-01-28T12:05:51;2.00;;;1.15;;
62584;SDS011;48643;51.670;5.808;2023-01-28T12:08:22;4.45;;;1.40;;
62584;SDS011;48643;51.670;5.808;2023-01-28T12:11:18;5.50;;;1.17;;
62584;SDS011;48643;51.670;5.808;2023-01-28T12:23:42;5.82;;;1.50;;
62584;SDS011;48643;51.670;5.808;2023-01-28T12:29:56;2.80;;;1.33;;
62584;SDS011;48643;51.670;5.808;2023-01-28T12:32:07;4.18;;;1.00;;
62584;SDS011;48643;51.670;5.808;2023-01-28T12:35:06;4.80;;;1.30;;
62584;SDS011;48643;51.670;5.808;2023-01-28T12:40:38;3.40;;;1.10;;
62584;SDS011;48643;51.670;5.808;2023-01-28T12:43:21;1.58;;;1.10;;
62584;SDS011;48643;51.670;5.808;2023-01-28T12:46:50;2.00;;;1.00;;
62584;SDS011;48643;51.670;5.808;2023-01-28T12:54:18;5.55;;;1.20;;
62584;SDS011;48643;51.670;5.808;2023-01-28T12:56:53;1.17;;;1.08;;
62584;SDS011;48643;51.670;5.808;2023-01-28T13:02:04;1.25;;;1.10;;
62584;SDS011;48643;51.670;5.808;2023-01-28T13:04:59;4.03;;;1.42;;
62584;SDS011;48643;51.670;5.808;2023-01-28T13:10:28;9.77;;;1.70;;
62584;SDS011;48643;51.670;5.808;2023-01-28T13:13:01;8.60;;;2.30;;
62584;SDS011;48643;51.670;5.808;2023-01-28T13:15:29;3.57;;;1.90;;
62584;SDS011;48643;51.670;5.808;2023-01-28T13:20:28;10.35;;;2.25;;
62584;SDS011;48643;51.670;5.808;2023-01-28T13:23:22;4.32;;;1.83;;
62584;SDS011;48643;51.670;5.808;2023-01-28T13:25:50;3.72;;;1.67;;
62584;SDS011;48643;51.670;5.808;2023-01-28T13:28:28;3.83;;;1.88;;
62584;SDS011;48643;51.670;5.808;2023-01-28T13:31:02;3.70;;;1.70;;
62584;SDS011;48643;51.670;5.808;2023-01-28T13:33:35;3.70;;;1.70;;
62584;SDS011;48643;51.670;5.808;2023-01-28T13:36:14;5.70;;;2.03;;
62584;SDS011;48643;51.670;5.808;2023-01-28T13:39:06;5.35;;;1.52;;
62584;SDS011;48643;51.670;5.808;2023-01-28T13:41:41;2.22;;;1.40;;
62584;SDS011;48643;51.670;5.808;2023-01-28T13:46:53;4.97;;;1.63;;
62584;SDS011;48643;51.670;5.808;2023-01-28T13:49:49;2.85;;;1.58;;
62584;SDS011;48643;51.670;5.808;2023-01-28T13:52:23;6.50;;;1.77;;
62584;SDS011;48643;51.670;5.808;2023-01-28T13:55:00;5.15;;;1.70;;
62584;SDS011;48643;51.670;5.808;2023-01-28T14:20:16;2.25;;;1.50;;
62584;SDS011;48643;51.670;5.808;2023-01-28T14:22:44;5.35;;;2.13;;
62584;SDS011;48643;51.670;5.808;2023-01-28T14:25:12;5.13;;;1.73;;
62584;SDS011;48643;51.670;5.808;2023-01-28T14:27:43;6.38;;;1.73;;
62584;SDS011;48643;51.670;5.808;2023-01-28T14:32:50;4.20;;;1.60;;
62584;SDS011;48643;51.670;5.808;2023-01-28T14:35:21;2.75;;;1.80;;
62584;SDS011;48643;51.670;5.808;2023-01-28T14:37:54;4.45;;;1.73;;
62584;SDS011;48643;51.670;5.808;2023-01-28T14:40:22;3.67;;;1.60;;
62584;SDS011;48643;51.670;5.808;2023-01-28T14:42:49;4.47;;;1.60;;
62584;SDS011;48643;51.670;5.808;2023-01-28T14:59:05;9.48;;;1.70;;
62584;SDS011;48643;51.670;5.808;2023-01-28T15:01:42;2.05;;;1.48;;
62584;SDS011;48643;51.670;5.808;2023-01-28T15:04:21;1.98;;;1.30;;
62584;SDS011;48643;51.670;5.808;2023-01-28T15:06:50;2.50;;;1.30;;
62584;SDS011;48643;51.670;5.808;2023-01-28T15:09:17;12.13;;;1.67;;
62584;SDS011;48643;51.670;5.808;2023-01-28T15:11:44;7.03;;;1.90;;
62584;SDS011;48643;51.670;5.808;2023-01-28T15:14:47;4.88;;;1.35;;
62584;SDS011;48643;51.670;5.808;2023-01-28T15:17:11;3.08;;;1.35;;
62584;SDS011;48643;51.670;5.808;2023-01-28T15:22:12;1.30;;;1.08;;
62584;SDS011;48643;51.670;5.808;2023-01-28T15:24:42;2.90;;;1.40;;
62584;SDS011;48643;51.670;5.808;2023-01-28T15:27:17;2.45;;;1.20;;
62584;SDS011;48643;51.670;5.808;2023-01-28T15:29:52;2.20;;;1.27;;
62584;SDS011;48643;51.670;5.808;2023-01-28T15:32:22;2.50;;;1.17;;
62584;SDS011;48643;51.670;5.808;2023-01-28T15:34:50;3.58;;;1.23;;
62584;SDS011;48643;51.670;5.808;2023-01-28T15:37:17;4.35;;;1.52;;
62584;SDS011;48643;51.670;5.808;2023-01-28T15:39:45;4.80;;;1.48;;
62584;SDS011;48643;51.670;5.808;2023-01-28T15:42:13;6.13;;;1.58;;
62584;SDS011;48643;51.670;5.808;2023-01-28T15:44:45;4.22;;;1.35;;
62584;SDS011;48643;51.670;5.808;2023-01-28T15:49:44;2.63;;;1.83;;
62584;SDS011;48643;51.670;5.808;2023-01-28T15:52:12;3.03;;;1.40;;
62584;SDS011;48643;51.670;5.808;2023-01-28T15:54:39;2.58;;;1.27;;
62584;SDS011;48643;51.670;5.808;2023-01-28T15:59:36;4.95;;;1.55;;
62584;SDS011;48643;51.670;5.808;2023-01-28T16:02:19;2.35;;;1.50;;
62584;SDS011;48643;51.670;5.808;2023-01-28T16:04:56;1.95;;;1.50;;
62584;SDS011;48643;51.670;5.808;2023-01-28T16:07:27;6.55;;;1.60;;
62584;SDS011;48643;51.670;5.808;2023-01-28T16:09:56;2.53;;;1.45;;
62584;SDS011;48643;51.670;5.808;2023-01-28T16:12:24;1.55;;;1.40;;
62584;SDS011;48643;51.670;5.808;2023-01-28T16:14:59;2.67;;;1.42;;
62584;SDS011;48643;51.670;5.808;2023-01-28T16:17:28;1.63;;;1.38;;
62584;SDS011;48643;51.670;5.808;2023-01-28T16:20:00;2.50;;;1.70;;
62584;SDS011;48643;51.670;5.808;2023-01-28T16:22:47;2.15;;;1.25;;
62584;SDS011;48643;51.670;5.808;2023-01-28T16:27:47;4.20;;;1.40;;
62584;SDS011;48643;51.670;5.808;2023-01-28T16:30:14;1.52;;;1.40;;
62584;SDS011;48643;51.670;5.808;2023-01-28T16:32:42;2.15;;;1.50;;
62584;SDS011;48643;51.670;5.808;2023-01-28T16:35:14;2.47;;;1.80;;
62584;SDS011;48643;51.670;5.808;2023-01-28T16:37:45;3.85;;;1.70;;
62584;SDS011;48643;51.670;5.808;2023-01-28T16:40:14;7.95;;;1.90;;
62584;SDS011;48643;51.670;5.808;2023-01-28T16:42:43;11.95;;;1.85;;
62584;SDS011;48643;51.670;5.808;2023-01-28T16:45:17;9.82;;;2.17;;
62584;SDS011;48643;51.670;5.808;2023-01-28T16:47:46;4.18;;;2.38;;
62584;SDS011;48643;51.670;5.808;2023-01-28T16:50:13;6.32;;;2.10;;
62584;SDS011;48643;51.670;5.808;2023-01-28T16:52:44;9.57;;;2.20;;
62584;SDS011;48643;51.670;5.808;2023-01-28T16:55:14;5.40;;;2.20;;
62584;SDS011;48643;51.670;5.808;2023-01-28T16:57:44;8.25;;;2.22;;
62584;SDS011;48643;51.670;5.808;2023-01-28T17:00:15;5.93;;;1.95;;
62584;SDS011;48643;51.670;5.808;2023-01-28T17:02:44;5.35;;;2.30;;
62584;SDS011;48643;51.670;5.808;2023-01-28T17:05:11;10.80;;;2.30;;
62584;SDS011;48643;51.670;5.808;2023-01-28T17:07:39;6.55;;;2.50;;
62584;SDS011;48643;51.670;5.808;2023-01-28T17:10:05;7.68;;;2.38;;
62584;SDS011;48643;51.670;5.808;2023-01-28T17:12:32;3.58;;;1.92;;
62584;SDS011;48643;51.670;5.808;2023-01-28T17:14:59;3.80;;;2.00;;
62584;SDS011;48643;51.670;5.808;2023-01-28T17:17:28;6.40;;;2.50;;
62584;SDS011;48643;51.670;5.808;2023-01-28T17:19:55;8.50;;;2.20;;
62584;SDS011;48643;51.670;5.808;2023-01-28T17:22:21;3.80;;;1.80;;
62584;SDS011;48643;51.670;5.808;2023-01-28T17:24:48;8.75;;;2.42;;
62584;SDS011;48643;51.670;5.808;2023-01-28T17:27:15;3.72;;;1.92;;
62584;SDS011;48643;51.670;5.808;2023-01-28T17:29:42;8.48;;;2.17;;